sensor_id;sensor_type;location;lat;lon;timestamp;pressure;altitude;pressure_sealevel;temperature;humidity
10167;BME280;62970;53.130;8.244;2023-06-14T00:01:12;101835.66;;;14.79;41.88
10167;BME280;62970;53.130;8.244;2023-06-14T00:03:43;101846.25;;;14.76;42.03
10167;BME280;62970;53.130;8.244;2023-06-14T00:06:13;101848.97;;;14.72;41.91
10167;BME280;62970;53.130;8.244;2023-06-14T00:08:43;101846.47;;;14.67;42.30
10167;BME280;62970;53.130;8.244;2023-06-14T00:11:12;101845.63;;;14.63;42.03
10167;BME280;62970;53.130;8.244;2023-06-14T00:13:44;101845.75;;;14.59;42.02
10167;BME280;62970;53.130;8.244;2023-06-14T00:16:13;101844.09;;;14.55;42.43
10167;BME280;62970;53.130;8.244;2023-06-14T00:18:42;101843.25;;;14.53;42.36
10167;BME280;62970;53.130;8.244;2023-06-14T00:21:12;101856.47;;;14.50;42.56
10167;BME280;62970;53.130;8.244;2023-06-14T00:23:41;101848.66;;;14.47;42.61
10167;BME280;62970;53.130;8.244;2023-06-14T00:26:10;101853.97;;;14.44;43.04
10167;BME280;62970;53.130;8.244;2023-06-14T00:28:40;101851.41;;;14.41;43.04
10167;BME280;62970;53.130;8.244;2023-06-14T00:31:12;101842.75;;;14.37;43.33
10167;BME280;62970;53.130;8.244;2023-06-14T00:33:41;101849.81;;;14.33;43.25
10167;BME280;62970;53.130;8.244;2023-06-14T00:36:10;101858.63;;;14.31;43.42
10167;BME280;62970;53.130;8.244;2023-06-14T00:38:39;101850.84;;;14.26;43.93
10167;BME280;62970;53.130;8.244;2023-06-14T00:41:08;101855.31;;;14.23;43.83
10167;BME280;62970;53.130;8.244;2023-06-14T00:43:38;101853.63;;;14.20;43.63
10167;BME280;62970;53.130;8.244;2023-06-14T00:46:11;101847.56;;;14.17;44.14
10167;BME280;62970;53.130;8.244;2023-06-14T00:48:40;101857.28;;;14.13;44.07
10167;BME280;62970;53.130;8.244;2023-06-14T00:51:10;101850.38;;;14.09;44.54
10167;BME280;62970;53.130;8.244;2023-06-14T00:53:39;101854.81;;;14.06;44.19
10167;BME280;62970;53.130;8.244;2023-06-14T00:56:12;101853.13;;;14.03;44.82
10167;BME280;62970;53.130;8.244;2023-06-14T00:58:42;101854.97;;;13.98;44.54
10167;BME280;62970;53.130;8.244;2023-06-14T01:01:15;101847.22;;;13.92;44.58
10167;BME280;62970;53.130;8.244;2023-06-14T01:03:44;101856.88;;;13.90;44.79
10167;BME280;62970;53.130;8.244;2023-06-14T01:06:22;101852.59;;;13.86;45.12
10167;BME280;62970;53.130;8.244;2023-06-14T01:09:07;101854.38;;;13.84;45.08
10167;BME280;62970;53.130;8.244;2023-06-14T01:11:47;101857.97;;;13.80;45.13
10167;BME280;62970;53.130;8.244;2023-06-14T01:14:20;101863.28;;;13.75;45.31
10167;BME280;62970;53.130;8.244;2023-06-14T01:16:53;101861.59;;;13.73;45.52
10167;BME280;62970;53.130;8.244;2023-06-14T01:19:24;101871.22;;;13.72;45.52
10167;BME280;62970;53.130;8.244;2023-06-14T01:21:54;101863.38;;;13.70;45.50
10167;BME280;62970;53.130;8.244;2023-06-14T01:24:26;101866.06;;;13.67;46.09
10167;BME280;62970;53.130;8.244;2023-06-14T01:26:58;101863.47;;;13.66;45.80
10167;BME280;62970;53.130;8.244;2023-06-14T01:29:29;101855.63;;;13.63;46.35
10167;BME280;62970;53.130;8.244;2023-06-14T01:31:58;101860.03;;;13.62;46.16
10167;BME280;62970;53.130;8.244;2023-06-14T01:34:28;101867.94;;;13.59;46.21
10167;BME280;62970;53.130;8.244;2023-06-14T01:36:58;101865.38;;;13.56;46.25
10167;BME280;62970;53.130;8.244;2023-06-14T01:39:31;101868.94;;;13.52;46.27
10167;BME280;62970;53.130;8.244;2023-06-14T01:42:01;101870.72;;;13.50;46.75
10167;BME280;62970;53.130;8.244;2023-06-14T01:44:30;101874.28;;;13.48;46.78
10167;BME280;62970;53.130;8.244;2023-06-14T01:47:00;101874.31;;;13.46;47.07
10167;BME280;62970;53.130;8.244;2023-06-14T01:49:29;101869.16;;;13.42;46.77
10167;BME280;62970;53.130;8.244;2023-06-14T01:52:02;101881.38;;;13.41;46.88
10167;BME280;62970;53.130;8.244;2023-06-14T01:54:34;101872.72;;;13.37;46.97
10167;BME280;62970;53.130;8.244;2023-06-14T01:57:08;101875.34;;;13.36;47.07
10167;BME280;62970;53.130;8.244;2023-06-14T01:59:37;101879.75;;;13.34;47.71
10167;BME280;62970;53.130;8.244;2023-06-14T02:02:06;101874.56;;;13.32;47.66
10167;BME280;62970;53.130;8.244;2023-06-14T02:04:35;101878.94;;;13.30;47.85
10167;BME280;62970;53.130;8.244;2023-06-14T02:07:06;101878.13;;;13.27;47.44
10167;BME280;62970;53.130;8.244;2023-06-14T02:09:38;101879.94;;;13.23;47.80
10167;BME280;62970;53.130;8.244;2023-06-14T02:12:09;101875.63;;;13.21;47.87
10167;BME280;62970;53.130;8.244;2023-06-14T02:14:39;101880.03;;;13.19;48.32
10167;BME280;62970;53.130;8.244;2023-06-14T02:17:10;101881.81;;;13.15;47.98
10167;BME280;62970;53.130;8.244;2023-06-14T02:19:42;101886.22;;;13.13;48.05
10167;BME280;62970;53.130;8.244;2023-06-14T02:22:11;101880.19;;;13.10;48.48
10167;BME280;62970;53.130;8.244;2023-06-14T02:24:44;101879.38;;;13.06;48.17
10167;BME280;62970;53.130;8.244;2023-06-14T02:27:13;101883.75;;;13.04;48.44
10167;BME280;62970;53.130;8.244;2023-06-14T02:29:42;101890.78;;;13.02;49.02
10167;BME280;62970;53.130;8.244;2023-06-14T02:32:12;101890.81;;;13.00;48.87
10167;BME280;62970;53.130;8.244;2023-06-14T02:34:41;101883.00;;;12.97;49.25
10167;BME280;62970;53.130;8.244;2023-06-14T02:37:10;101887.41;;;12.94;49.44
10167;BME280;62970;53.130;8.244;2023-06-14T02:39:43;101889.19;;;12.92;49.30
10167;BME280;62970;53.130;8.244;2023-06-14T02:42:12;101887.47;;;12.91;49.51
10167;BME280;62970;53.130;8.244;2023-06-14T02:44:41;101886.63;;;12.89;49.12
10167;BME280;62970;53.130;8.244;2023-06-14T02:47:11;101883.19;;;12.85;49.69
10167;BME280;62970;53.130;8.244;2023-06-14T02:49:41;101885.84;;;12.82;49.63
10167;BME280;62970;53.130;8.244;2023-06-14T02:52:12;101892.88;;;12.80;49.74
10167;BME280;62970;53.130;8.244;2023-06-14T02:54:44;101890.31;;;12.77;49.37
10167;BME280;62970;53.130;8.244;2023-06-14T02:57:14;101895.56;;;12.75;49.51
10167;BME280;62970;53.130;8.244;2023-06-14T02:59:43;101901.69;;;12.73;49.97
10167;BME280;62970;53.130;8.244;2023-06-14T03:02:13;101906.09;;;12.71;49.79
10167;BME280;62970;53.130;8.244;2023-06-14T03:04:42;101906.13;;;12.68;50.41
10167;BME280;62970;53.130;8.244;2023-06-14T03:07:12;101909.63;;;12.67;50.34
10167;BME280;62970;53.130;8.244;2023-06-14T03:09:49;101916.66;;;12.65;49.94
10167;BME280;62970;53.130;8.244;2023-06-14T03:12:18;101912.28;;;12.65;50.14
10167;BME280;62970;53.130;8.244;2023-06-14T03:14:47;101917.53;;;12.64;50.34
10167;BME280;62970;53.130;8.244;2023-06-14T03:17:16;101919.28;;;12.63;50.38
10167;BME280;62970;53.130;8.244;2023-06-14T03:19:46;101927.13;;;12.63;50.47
10167;BME280;62970;53.130;8.244;2023-06-14T03:22:15;101928.00;;;12.64;50.91
10167;BME280;62970;53.130;8.244;2023-06-14T03:24:47;101930.63;;;12.62;50.79
10167;BME280;62970;53.130;8.244;2023-06-14T03:27:18;101931.50;;;12.63;50.58
10167;BME280;62970;53.130;8.244;2023-06-14T03:29:47;101932.38;;;12.62;50.94
10167;BME280;62970;53.130;8.244;2023-06-14T03:32:16;101931.50;;;12.63;50.97
10167;BME280;62970;53.130;8.244;2023-06-14T03:34:45;101935.84;;;12.64;51.17
10167;BME280;62970;53.130;8.244;2023-06-14T03:37:15;101935.81;;;12.65;50.77
10167;BME280;62970;53.130;8.244;2023-06-14T03:39:44;101940.16;;;12.66;51.07
10167;BME280;62970;53.130;8.244;2023-06-14T03:42:16;101938.41;;;12.67;51.23
10167;BME280;62970;53.130;8.244;2023-06-14T03:44:45;101943.63;;;12.68;51.11
10167;BME280;62970;53.130;8.244;2023-06-14T03:47:14;101949.72;;;12.70;50.94
10167;BME280;62970;53.130;8.244;2023-06-14T03:49:44;101941.84;;;12.72;51.26
10167;BME280;62970;53.130;8.244;2023-06-14T03:52:13;101945.31;;;12.74;51.47
10167;BME280;62970;53.130;8.244;2023-06-14T03:54:43;101943.53;;;12.74;51.51
10167;BME280;62970;53.130;8.244;2023-06-14T03:57:15;101950.50;;;12.75;51.39
10167;BME280;62970;53.130;8.244;2023-06-14T03:59:45;101947.84;;;12.79;51.40
10167;BME280;62970;53.130;8.244;2023-06-14T04:02:14;101956.53;;;12.81;51.09
10167;BME280;62970;53.130;8.244;2023-06-14T04:04:44;101961.75;;;12.84;51.47
10167;BME280;62970;53.130;8.244;2023-06-14T04:07:14;101958.19;;;12.88;51.42
10167;BME280;62970;53.130;8.244;2023-06-14T04:09:45;101962.50;;;12.90;51.58
10167;BME280;62970;53.130;8.244;2023-06-14T04:12:17;101965.09;;;12.93;51.18
10167;BME280;62970;53.130;8.244;2023-06-14T04:14:46;101966.75;;;12.99;51.42
10167;BME280;62970;53.130;8.244;2023-06-14T04:17:15;101965.81;;;13.03;51.71
10167;BME280;62970;53.130;8.244;2023-06-14T04:19:45;101964.00;;;13.06;51.56
10167;BME280;62970;53.130;8.244;2023-06-14T04:22:14;101973.53;;;13.12;51.68
10167;BME280;62970;53.130;8.244;2023-06-14T04:24:44;101972.63;;;13.15;51.56
10167;BME280;62970;53.130;8.244;2023-06-14T04:27:16;101976.03;;;13.20;51.77
10167;BME280;62970;53.130;8.244;2023-06-14T04:29:47;101974.19;;;13.25;51.71
10167;BME280;62970;53.130;8.244;2023-06-14T04:32:19;101984.59;;;13.29;51.77
10167;BME280;62970;53.130;8.244;2023-06-14T04:34:51;101983.66;;;13.35;51.56
10167;BME280;62970;53.130;8.244;2023-06-14T04:37:21;101991.41;;;13.41;51.61
10167;BME280;62970;53.130;8.244;2023-06-14T04:39:54;101978.19;;;13.49;51.38
10167;BME280;62970;53.130;8.244;2023-06-14T04:42:26;101982.22;;;13.69;51.94
10167;BME280;62970;53.130;8.244;2023-06-14T04:44:57;101967.09;;;14.30;51.61
10167;BME280;62970;53.130;8.244;2023-06-14T04:47:27;101974.84;;;15.15;51.03
10167;BME280;62970;53.130;8.244;2023-06-14T04:49:57;101976.88;;;16.09;49.88
10167;BME280;62970;53.130;8.244;2023-06-14T04:52:26;101973.28;;;17.01;48.23
10167;BME280;62970;53.130;8.244;2023-06-14T04:54:55;101980.97;;;17.88;46.92
10167;BME280;62970;53.130;8.244;2023-06-14T04:57:28;101969.16;;;18.70;45.99
10167;BME280;62970;53.130;8.244;2023-06-14T04:59:57;101973.28;;;19.42;44.79
10167;BME280;62970;53.130;8.244;2023-06-14T05:02:27;101983.75;;;20.06;43.64
10167;BME280;62970;53.130;8.244;2023-06-14T05:04:56;101984.19;;;20.57;43.27
10167;BME280;62970;53.130;8.244;2023-06-14T05:07:27;101982.91;;;21.01;41.94
10167;BME280;62970;53.130;8.244;2023-06-14T05:09:57;101981.22;;;21.36;41.81
10167;BME280;62970;53.130;8.244;2023-06-14T05:12:29;101983.16;;;21.67;41.24
10167;BME280;62970;53.130;8.244;2023-06-14T05:14:58;101981.28;;;22.04;40.22
10167;BME280;62970;53.130;8.244;2023-06-14T05:17:28;101980.00;;;22.44;39.86
10167;BME280;62970;53.130;8.244;2023-06-14T05:19:59;101974.38;;;22.82;39.28
10167;BME280;62970;53.130;8.244;2023-06-14T05:22:28;101978.59;;;23.17;38.98
10167;BME280;62970;53.130;8.244;2023-06-14T05:24:57;101982.25;;;23.46;38.19
10167;BME280;62970;53.130;8.244;2023-06-14T05:27:29;101987.63;;;23.75;37.94
10167;BME280;62970;53.130;8.244;2023-06-14T05:29:58;101988.13;;;23.96;37.46
10167;BME280;62970;53.130;8.244;2023-06-14T05:32:27;101988.84;;;24.13;37.26
10167;BME280;62970;53.130;8.244;2023-06-14T05:34:56;101986.16;;;24.42;36.60
10167;BME280;62970;53.130;8.244;2023-06-14T05:37:25;101998.63;;;24.70;36.00
10167;BME280;62970;53.130;8.244;2023-06-14T05:39:54;101991.72;;;24.94;35.46
10167;BME280;62970;53.130;8.244;2023-06-14T05:42:24;101992.09;;;25.15;35.67
10167;BME280;62970;53.130;8.244;2023-06-14T05:44:55;101987.91;;;25.25;35.48
10167;BME280;62970;53.130;8.244;2023-06-14T05:47:26;101996.81;;;25.38;34.95
10167;BME280;62970;53.130;8.244;2023-06-14T05:49:55;101994.22;;;25.64;34.99
10167;BME280;62970;53.130;8.244;2023-06-14T05:52:25;101995.78;;;25.93;34.08
10167;BME280;62970;53.130;8.244;2023-06-14T05:54:55;102000.47;;;26.15;33.59
10167;BME280;62970;53.130;8.244;2023-06-14T05:57:24;102001.00;;;26.46;33.26
10167;BME280;62970;53.130;8.244;2023-06-14T05:59:56;101994.06;;;26.80;33.12
10167;BME280;62970;53.130;8.244;2023-06-14T06:02:25;102005.13;;;27.23;32.75
10167;BME280;62970;53.130;8.244;2023-06-14T06:04:54;102003.34;;;27.58;32.01
10167;BME280;62970;53.130;8.244;2023-06-14T06:07:23;102008.03;;;27.79;31.44
10167;BME280;62970;53.130;8.244;2023-06-14T06:09:52;102008.06;;;28.01;31.28
10167;BME280;62970;53.130;8.244;2023-06-14T06:12:21;102010.75;;;28.12;30.55
10167;BME280;62970;53.130;8.244;2023-06-14T06:14:51;102014.78;;;28.07;30.17
10167;BME280;62970;53.130;8.244;2023-06-14T06:17:24;102019.63;;;28.01;30.37
10167;BME280;62970;53.130;8.244;2023-06-14T06:19:54;102012.00;;;28.19;30.11
10167;BME280;62970;53.130;8.244;2023-06-14T06:22:23;102023.75;;;28.41;29.76
10167;BME280;62970;53.130;8.244;2023-06-14T06:24:52;102009.00;;;28.46;29.19
10167;BME280;62970;53.130;8.244;2023-06-14T06:27:21;102013.00;;;28.52;29.11
10167;BME280;62970;53.130;8.244;2023-06-14T06:29:50;102016.91;;;28.59;28.96
10167;BME280;62970;53.130;8.244;2023-06-14T06:32:22;102010.69;;;28.58;28.60
10167;BME280;62970;53.130;8.244;2023-06-14T06:34:52;102011.28;;;28.62;28.88
10167;BME280;62970;53.130;8.244;2023-06-14T06:37:21;102013.38;;;28.70;28.54
10167;BME280;62970;53.130;8.244;2023-06-14T06:39:50;102017.50;;;28.85;28.33
10167;BME280;62970;53.130;8.244;2023-06-14T06:42:20;102020.16;;;28.96;27.76
10167;BME280;62970;53.130;8.244;2023-06-14T06:44:49;102023.41;;;29.11;27.61
10167;BME280;62970;53.130;8.244;2023-06-14T06:47:18;102018.38;;;29.17;27.09
10167;BME280;62970;53.130;8.244;2023-06-14T06:49:50;102022.03;;;29.27;27.49
10167;BME280;62970;53.130;8.244;2023-06-14T06:52:19;102030.25;;;29.47;26.84
10167;BME280;62970;53.130;8.244;2023-06-14T06:54:48;102034.91;;;29.66;26.88
10167;BME280;62970;53.130;8.244;2023-06-14T06:57:21;102032.19;;;29.77;25.99
10167;BME280;62970;53.130;8.244;2023-06-14T06:59:50;102033.97;;;29.87;26.14
10167;BME280;62970;53.130;8.244;2023-06-14T07:02:23;102038.09;;;29.91;26.42
10167;BME280;62970;53.130;8.244;2023-06-14T07:04:56;102039.53;;;29.96;26.03
10167;BME280;62970;53.130;8.244;2023-06-14T07:07:25;102038.66;;;30.16;25.63
10167;BME280;62970;53.130;8.244;2023-06-14T07:09:54;102041.66;;;30.22;25.48
10167;BME280;62970;53.130;8.244;2023-06-14T07:12:26;102043.88;;;30.17;25.44
10167;BME280;62970;53.130;8.244;2023-06-14T07:14:56;102038.56;;;30.27;25.52
10167;BME280;62970;53.130;8.244;2023-06-14T07:17:26;102038.94;;;30.43;25.05
10167;BME280;62970;53.130;8.244;2023-06-14T07:19:57;102034.31;;;30.55;25.12
10167;BME280;62970;53.130;8.244;2023-06-14T07:22:26;102038.47;;;30.69;24.54
10167;BME280;62970;53.130;8.244;2023-06-14T07:24:55;102039.34;;;30.79;24.46
10167;BME280;62970;53.130;8.244;2023-06-14T07:27:25;102039.31;;;30.69;23.90
10167;BME280;62970;53.130;8.244;2023-06-14T07:29:54;102037.06;;;30.74;23.93
10167;BME280;62970;53.130;8.244;2023-06-14T07:32:25;102026.94;;;30.88;23.77
10167;BME280;62970;53.130;8.244;2023-06-14T07:34:57;102039.13;;;30.82;23.61
10167;BME280;62970;53.130;8.244;2023-06-14T07:37:26;102035.03;;;30.57;23.47
10167;BME280;62970;53.130;8.244;2023-06-14T07:39:55;102040.66;;;30.23;23.65
10167;BME280;62970;53.130;8.244;2023-06-14T07:42:24;102035.00;;;29.96;23.75
10167;BME280;62970;53.130;8.244;2023-06-14T07:44:53;102029.81;;;29.83;24.28
10167;BME280;62970;53.130;8.244;2023-06-14T07:47:23;102031.66;;;30.04;24.24
10167;BME280;62970;53.130;8.244;2023-06-14T07:49:52;102036.66;;;30.39;24.18
10167;BME280;62970;53.130;8.244;2023-06-14T07:52:23;102039.31;;;30.69;23.71
10167;BME280;62970;53.130;8.244;2023-06-14T07:54:52;102025.69;;;30.92;23.37
10167;BME280;62970;53.130;8.244;2023-06-14T07:57:22;102036.59;;;31.00;22.89
10167;BME280;62970;53.130;8.244;2023-06-14T07:59:52;102026.69;;;31.00;22.97
10167;BME280;62970;53.130;8.244;2023-06-14T08:02:21;102027.25;;;31.04;22.46
10167;BME280;62970;53.130;8.244;2023-06-14T08:04:50;102028.41;;;31.11;22.92
10167;BME280;62970;53.130;8.244;2023-06-14T08:07:22;102033.22;;;31.17;22.99
10167;BME280;62970;53.130;8.244;2023-06-14T08:09:51;102034.63;;;31.21;22.42
10167;BME280;62970;53.130;8.244;2023-06-14T08:12:22;102038.19;;;31.22;22.41
10167;BME280;62970;53.130;8.244;2023-06-14T08:14:52;102039.75;;;31.14;22.19
10167;BME280;62970;53.130;8.244;2023-06-14T08:17:21;102042.56;;;31.13;22.48
10167;BME280;62970;53.130;8.244;2023-06-14T08:19:51;102042.41;;;31.05;22.27
10167;BME280;62970;53.130;8.244;2023-06-14T08:22:23;102045.38;;;30.92;22.34
10167;BME280;62970;53.130;8.244;2023-06-14T08:24:55;102022.28;;;30.90;21.94
10167;BME280;62970;53.130;8.244;2023-06-14T08:27:24;102037.44;;;30.91;22.20
10167;BME280;62970;53.130;8.244;2023-06-14T08:29:53;102034.47;;;30.94;21.67
10167;BME280;62970;53.130;8.244;2023-06-14T08:32:22;102032.06;;;30.91;21.56
10167;BME280;62970;53.130;8.244;2023-06-14T08:34:51;102029.94;;;30.94;21.82
10167;BME280;62970;53.130;8.244;2023-06-14T08:37:23;102031.78;;;30.94;21.49
10167;BME280;62970;53.130;8.244;2023-06-14T08:39:52;102052.06;;;30.77;21.21
10167;BME280;62970;53.130;8.244;2023-06-14T08:42:24;102045.00;;;30.36;20.71
10167;BME280;62970;53.130;8.244;2023-06-14T08:44:53;102039.50;;;29.75;21.22
10167;BME280;62970;53.130;8.244;2023-06-14T08:47:24;102028.66;;;29.12;21.97
10167;BME280;62970;53.130;8.244;2023-06-14T08:49:55;102040.31;;;28.46;22.22
10167;BME280;62970;53.130;8.244;2023-06-14T08:52:34;102031.72;;;27.61;22.63
10167;BME280;62970;53.130;8.244;2023-06-14T08:55:08;102033.56;;;26.76;23.23
10167;BME280;62970;53.130;8.244;2023-06-14T08:57:39;102040.22;;;26.07;24.00
10167;BME280;62970;53.130;8.244;2023-06-14T09:00:11;102034.53;;;25.46;24.43
10167;BME280;62970;53.130;8.244;2023-06-14T09:02:41;102042.84;;;25.01;24.92
10167;BME280;62970;53.130;8.244;2023-06-14T09:05:11;102045.88;;;24.68;25.46
10167;BME280;62970;53.130;8.244;2023-06-14T09:07:46;102041.47;;;24.38;25.36
10167;BME280;62970;53.130;8.244;2023-06-14T09:10:16;102044.41;;;24.19;26.45
10167;BME280;62970;53.130;8.244;2023-06-14T09:12:46;102044.50;;;24.04;26.45
10167;BME280;62970;53.130;8.244;2023-06-14T09:15:15;102049.44;;;23.80;26.66
10167;BME280;62970;53.130;8.244;2023-06-14T09:17:44;102045.38;;;23.58;26.57
10167;BME280;62970;53.130;8.244;2023-06-14T09:20:13;102048.94;;;23.43;26.91
10167;BME280;62970;53.130;8.244;2023-06-14T09:22:46;102059.25;;;23.34;27.13
10167;BME280;62970;53.130;8.244;2023-06-14T09:25:16;102057.69;;;23.30;27.29
10167;BME280;62970;53.130;8.244;2023-06-14T09:27:47;102051.25;;;23.18;27.73
10167;BME280;62970;53.130;8.244;2023-06-14T09:30:16;102059.06;;;23.05;27.95
10167;BME280;62970;53.130;8.244;2023-06-14T09:32:49;102050.97;;;22.91;27.90
10167;BME280;62970;53.130;8.244;2023-06-14T09:35:18;102059.53;;;22.80;28.21
10167;BME280;62970;53.130;8.244;2023-06-14T09:37:50;102057.47;;;22.70;28.27
10167;BME280;62970;53.130;8.244;2023-06-14T09:40:21;102061.38;;;22.62;28.36
10167;BME280;62970;53.130;8.244;2023-06-14T09:42:51;102073.03;;;22.60;28.58
10167;BME280;62970;53.130;8.244;2023-06-14T09:45:21;102056.31;;;22.58;28.37
10167;BME280;62970;53.130;8.244;2023-06-14T09:47:53;102053.66;;;22.58;28.89
10167;BME280;62970;53.130;8.244;2023-06-14T09:50:23;102050.06;;;22.59;29.03
10167;BME280;62970;53.130;8.244;2023-06-14T09:52:59;102063.25;;;22.60;29.41
10167;BME280;62970;53.130;8.244;2023-06-14T09:55:31;102057.94;;;22.60;28.97
10167;BME280;62970;53.130;8.244;2023-06-14T09:58:05;102061.09;;;22.51;29.20
10167;BME280;62970;53.130;8.244;2023-06-14T10:00:36;102056.09;;;22.45;29.15
10167;BME280;62970;53.130;8.244;2023-06-14T10:03:16;102051.91;;;22.41;28.95
10167;BME280;62970;53.130;8.244;2023-06-14T10:05:51;102051.13;;;22.39;29.66
10167;BME280;62970;53.130;8.244;2023-06-14T10:08:25;102056.69;;;22.35;29.52
10167;BME280;62970;53.130;8.244;2023-06-14T10:10:56;102052.41;;;22.32;30.02
10167;BME280;62970;53.130;8.244;2023-06-14T10:13:27;102052.41;;;22.32;29.82
10167;BME280;62970;53.130;8.244;2023-06-14T10:16:05;102042.53;;;22.34;29.90
10167;BME280;62970;53.130;8.244;2023-06-14T10:18:45;102039.72;;;22.37;29.62
10167;BME280;62970;53.130;8.244;2023-06-14T10:24:15;102040.66;;;22.36;30.13
10167;BME280;62970;53.130;8.244;2023-06-14T10:26:53;102038.69;;;22.40;29.98
10167;BME280;62970;53.130;8.244;2023-06-14T10:29:23;102043.75;;;22.44;30.11
10167;BME280;62970;53.130;8.244;2023-06-14T10:31:57;102053.22;;;22.50;30.70
10167;BME280;62970;53.130;8.244;2023-06-14T10:34:31;102044.91;;;22.56;30.07
10167;BME280;62970;53.130;8.244;2023-06-14T10:37:03;102038.47;;;22.60;30.11
